Oxford, NC

5:16 PM EDT on October 25, 2014 (GMT -0400)
Oak Hill | Change Station
CLOSE
Current Station
Personal Weather Station
Location: Oxford, NC
Elevation: 499 ft
Nearby Weather Stations

Elev 499 ft 36.44 °N, 78.73 °W | Updated 4 minutes ago

Clear
Clear
69.6 °F
Feels Like 69.6 °F
N
0.0
Wind Variable Wind from WSW

Today
High -- | Low -- °F
--% Chance of Precip.
Yesterday
High -- | Low -- °F
Precip. -- in
7:30 AM 6:25 PM
Waxing Crescent, 4% visible
Pressure 29.92 in
Visibility 10.0 miles
Clouds Clear
Dew Point 46 °F
Humidity 42%
Rainfall 0.00 in
Snow Depth Not available.
UV 1 out of 12
Pollen 1.00 out of 12
Ozone Good
PM2.5 Good
Flu Activity Local Activity
METAR KTDF 252055Z AUTO 25005KT 10SM CLR 21/05 A2992 RMK AO2

More Conditions Fewer Conditions

Pressure 29.92 in
Visibility 10.0 miles
Clouds Clear
Dew Point 46 °F
Humidity 42%
Rainfall 0.00 in
Snow Depth Not available.
UV 1 out of 12
Pollen 1.00 out of 12
Ozone Good
PM2.5 Good
Flu Activity Local Activity
METAR KTDF 252055Z AUTO 25005KT 10SM CLR 21/05 A2992 RMK AO2

More Conditions Fewer Conditions

10-Day Weather Forecast

Almanac

Astronomy

Oct. 25, 2014 Rise Set
Actual Time 7:30 AM EDT 6:25 PM EDT
Civil Twilight 7:04 AM EDT 6:52 PM EDT
Nautical Twilight 6:34 AM EDT 7:22 PM EDT
Astronomical Twilight 6:04 AM EDT 7:51 PM EDT
Moon 9:05 AM EDT 7:49 PM EDT
Length of Visible Light 11h 47m
Length of Day
10h 55m
Tomorrow will be 2m 7s shorter.
Waxing Crescent, 4% of the Moon is Illuminated
Today
Waxing Crescent
Oct 30
First Quarter
Nov 6
Full
Nov 14
Last Quarter
Nov 22
New

Today's Extremes

State Highs State Lows

Community

WunderPhotos

Upload Photos

1,764,997 photos uploaded!

Nearby

Air Quality

  Air Quality AQ Index Pollutant
Yesterday Good
OZONE
Yesterday Good
PM2.5
Current Good
OZONE
Current Good
PM2.5
Saturday Moderate
PM2.5
Saturday Good
OZONE
Sunday Good
PM2.5
Sunday Good
OZONE
Monday Good
PM2.5
Monday Good
OZONE
Tuesday Moderate
PM2.5
Tuesday Good
OZONE

Snow Depth

Station Depth Elevation
No new snow has been reported.

Earthquake Activity

City Distance Mag. Time & Date
No recent earthquake activity has been reported nearby.
Minimum magnitude displayed is 2.5.

Coastal Water Temperatures

Place Temperature
No Stations Reporting

Nearby Weather Stations